createdAt,value
2022-09-13T00:01:45.770Z,0.80
2022-09-13T00:04:12.624Z,0.98
2022-09-13T00:06:39.405Z,0.85
2022-09-13T00:09:06.352Z,1.02
2022-09-13T00:11:33.455Z,0.90
2022-09-13T00:14:00.369Z,0.63
2022-09-13T00:16:29.651Z,0.93
2022-09-13T00:18:58.013Z,0.88
2022-09-13T00:21:25.276Z,0.98
2022-09-13T00:23:54.082Z,1.02
2022-09-13T00:26:27.098Z,0.93
2022-09-13T00:31:26.582Z,0.90
2022-09-13T00:33:53.973Z,0.90
2022-09-13T00:36:21.155Z,0.70
2022-09-13T00:38:47.923Z,1.48
2022-09-13T00:41:17.543Z,1.20
2022-09-13T00:43:50.864Z,0.73
2022-09-13T00:46:47.758Z,0.77
2022-09-13T00:49:37.249Z,1.33
2022-09-13T00:52:10.903Z,0.70
2022-09-13T00:54:45.594Z,0.75
2022-09-13T00:57:14.843Z,1.08
2022-09-13T00:59:50.394Z,1.38
2022-09-13T01:02:17.298Z,0.80
2022-09-13T01:04:44.931Z,1.10
2022-09-13T01:07:15.279Z,0.82
2022-09-13T01:09:46.014Z,1.05
2022-09-13T01:12:32.109Z,0.98
2022-09-13T01:15:01.323Z,1.00
2022-09-13T01:17:30.676Z,1.05
2022-09-13T01:19:58.560Z,0.90
2022-09-13T01:22:50.230Z,0.90
2022-09-13T01:25:16.923Z,0.80
2022-09-13T01:28:01.993Z,0.90
2022-09-13T01:30:38.587Z,0.90
2022-09-13T01:34:07.222Z,0.60
2022-09-13T01:37:50.533Z,0.80
2022-09-13T01:40:38.530Z,0.70
2022-09-13T01:43:46.698Z,0.98
2022-09-13T01:46:23.042Z,0.88
2022-09-13T01:49:15.569Z,0.60
2022-09-13T01:52:08.777Z,0.80
2022-09-13T01:54:50.611Z,0.77
2022-09-13T01:57:48.740Z,0.82
2022-09-13T02:00:18.788Z,1.20
2022-09-13T02:03:11.287Z,1.02
2022-09-13T02:06:08.932Z,1.02
2022-09-13T02:08:47.487Z,0.80
2022-09-13T02:11:17.561Z,0.88
2022-09-13T02:13:54.847Z,1.08
2022-09-13T02:16:32.228Z,0.90
2022-09-13T02:19:13.694Z,0.70
2022-09-13T02:21:45.274Z,0.98
2022-09-13T02:24:34.498Z,1.17
2022-09-13T02:27:32.745Z,0.90
2022-09-13T02:30:05.784Z,0.88
2022-09-13T02:32:40.758Z,0.70
2022-09-13T02:35:14.951Z,0.80
2022-09-13T02:37:47.338Z,0.70
2022-09-13T02:40:22.885Z,0.63
2022-09-13T02:43:05.071Z,0.80
2022-09-13T02:46:21.143Z,0.90
2022-09-13T02:49:08.671Z,0.80
2022-09-13T02:51:57.221Z,0.60
2022-09-13T02:54:53.249Z,0.77
2022-09-13T02:57:33.226Z,0.95
2022-09-13T03:00:00.597Z,1.38
2022-09-13T03:02:34.295Z,1.23
2022-09-13T03:05:02.619Z,0.77
2022-09-13T03:07:29.711Z,0.82
2022-09-13T03:10:04.602Z,0.77
2022-09-13T03:13:01.926Z,0.98
2022-09-13T03:15:53.574Z,1.77
2022-09-13T03:18:49.441Z,0.98
2022-09-13T03:21:33.062Z,0.63
2022-09-13T03:24:18.447Z,1.08
2022-09-13T03:27:15.236Z,0.73
2022-09-13T03:30:20.510Z,1.10
2022-09-13T03:32:58.276Z,0.95
2022-09-13T03:35:41.965Z,1.40
2022-09-13T03:38:21.701Z,1.08
2022-09-13T03:41:07.579Z,1.00
2022-09-13T03:43:43.443Z,1.85
2022-09-13T03:46:20.391Z,0.98
2022-09-13T03:48:48.025Z,0.80
2022-09-13T03:51:15.465Z,0.70
2022-09-13T03:53:52.067Z,1.17
2022-09-13T03:56:21.109Z,0.70
2022-09-13T03:58:49.334Z,1.10
2022-09-13T04:01:22.751Z,0.73
2022-09-13T04:03:53.423Z,0.80
2022-09-13T04:06:23.319Z,0.80
2022-09-13T04:08:50.263Z,0.80
2022-09-13T04:11:17.094Z,1.55
2022-09-13T04:13:43.983Z,0.60
2022-09-13T04:16:10.766Z,1.17
2022-09-13T04:18:37.556Z,0.75
2022-09-13T04:21:04.860Z,0.70
2022-09-13T04:23:31.666Z,1.20
2022-09-13T04:26:05.992Z,1.00
2022-09-13T04:28:32.768Z,0.82
2022-09-13T04:30:59.513Z,0.90
2022-09-13T04:33:26.212Z,1.10
2022-09-13T04:35:59.833Z,0.80
2022-09-13T04:38:27.329Z,0.90
2022-09-13T04:40:57.276Z,1.25
2022-09-13T04:43:24.931Z,0.80
2022-09-13T04:45:51.983Z,1.00
2022-09-13T04:48:18.929Z,0.90
2022-09-13T04:50:45.733Z,1.17
2022-09-13T04:53:12.549Z,0.90
2022-09-13T04:55:39.301Z,1.20
2022-09-13T04:58:06.367Z,1.17
2022-09-13T05:00:34.080Z,1.02
2022-09-13T05:03:01.016Z,1.60
2022-09-13T05:05:29.016Z,1.45
2022-09-13T05:07:56.226Z,1.40
2022-09-13T05:10:23.149Z,1.27
2022-09-13T05:12:49.926Z,1.33
2022-09-13T05:15:16.839Z,1.13
2022-09-13T05:17:43.564Z,1.50
2022-09-13T05:20:11.206Z,1.08
2022-09-13T05:22:38.070Z,0.70
2022-09-13T05:25:05.638Z,1.20
2022-09-13T05:27:32.334Z,1.30
2022-09-13T05:29:59.053Z,1.15
2022-09-13T05:32:25.804Z,1.17
2022-09-13T05:34:52.542Z,1.20
2022-09-13T05:37:19.343Z,1.05
2022-09-13T05:40:07.812Z,0.82
2022-09-13T05:42:32.826Z,1.08
2022-09-13T05:44:59.575Z,1.10
2022-09-13T05:47:26.339Z,1.60
2022-09-13T05:50:09.848Z,0.93
2022-09-13T05:52:37.759Z,1.38
2022-09-13T05:55:04.882Z,1.30
2022-09-13T05:57:32.004Z,1.00
2022-09-13T05:59:58.794Z,1.65
2022-09-13T06:02:25.552Z,1.73
2022-09-13T06:04:52.411Z,1.30
2022-09-13T06:07:19.132Z,1.33
2022-09-13T06:09:45.898Z,1.27
2022-09-13T06:12:12.590Z,1.50
2022-09-13T06:14:39.322Z,1.10
2022-09-13T06:17:06.552Z,1.50
2022-09-13T06:19:33.360Z,1.40
2022-09-13T06:22:00.215Z,1.35
2022-09-13T06:24:26.912Z,1.27
2022-09-13T06:26:54.311Z,1.42
2022-09-13T06:29:21.047Z,1.40
2022-09-13T06:31:47.825Z,1.48
2022-09-13T06:34:16.204Z,1.30
2022-09-13T06:36:43.310Z,1.73
2022-09-13T06:39:10.134Z,1.35
2022-09-13T06:41:37.581Z,1.65
2022-09-13T06:44:04.558Z,1.73
2022-09-13T06:46:34.798Z,1.30
2022-09-13T06:49:05.261Z,1.20
2022-09-13T06:51:33.724Z,1.10
2022-09-13T06:54:01.405Z,1.13
2022-09-13T06:56:36.226Z,1.50
2022-09-13T06:59:07.166Z,1.25
2022-09-13T07:01:38.557Z,1.40
2022-09-13T07:04:12.340Z,1.08
2022-09-13T07:06:42.738Z,1.75
2022-09-13T07:09:13.798Z,1.17
2022-09-13T07:11:42.318Z,1.35
2022-09-13T07:14:09.477Z,1.10
2022-09-13T07:16:38.579Z,0.70
2022-09-13T07:19:11.272Z,0.75
2022-09-13T07:21:38.084Z,0.88
2022-09-13T07:24:05.381Z,1.05
2022-09-13T07:26:32.276Z,1.40
2022-09-13T07:29:03.157Z,1.13
2022-09-13T07:31:37.287Z,1.02
2022-09-13T07:34:12.750Z,1.05
2022-09-13T07:36:39.460Z,1.00
2022-09-13T07:39:08.237Z,1.48
2022-09-13T07:41:37.332Z,1.02
2022-09-13T07:44:06.492Z,1.67
2022-09-13T07:46:41.545Z,1.50
2022-09-13T07:49:09.866Z,1.60
2022-09-13T07:51:39.717Z,1.30
2022-09-13T07:54:15.521Z,1.35
2022-09-13T07:56:42.904Z,1.10
2022-09-13T07:59:17.136Z,1.23
2022-09-13T08:01:47.194Z,1.10
2022-09-13T08:04:18.658Z,1.23
2022-09-13T08:06:46.859Z,1.40
2022-09-13T08:09:14.193Z,1.02
2022-09-13T08:11:51.901Z,0.90
2022-09-13T08:14:20.786Z,1.42
2022-09-13T08:16:48.111Z,1.20
2022-09-13T08:19:17.755Z,1.70
2022-09-13T08:21:45.437Z,1.73
2022-09-13T08:24:24.309Z,2.20
2022-09-13T08:26:52.190Z,1.80
2022-09-13T08:29:19.352Z,3.10
2022-09-13T08:31:46.087Z,2.28
2022-09-13T08:34:15.700Z,2.25
2022-09-13T08:36:43.342Z,2.10
2022-09-13T08:39:13.920Z,2.33
2022-09-13T08:41:42.178Z,1.80
2022-09-13T08:44:36.309Z,1.33
2022-09-13T08:47:23.948Z,2.15
2022-09-13T08:50:07.201Z,1.55
2022-09-13T08:55:20.334Z,1.10
2022-09-13T08:57:54.994Z,1.17
2022-09-13T09:00:40.862Z,1.08
2022-09-13T09:03:42.196Z,1.38
2022-09-13T09:06:16.986Z,1.27
2022-09-13T09:08:58.113Z,0.95
2022-09-13T09:11:42.189Z,1.33
2022-09-13T09:14:49.065Z,1.10
2022-09-13T09:17:25.473Z,1.40
2022-09-13T09:20:09.715Z,1.13
2022-09-13T09:22:36.641Z,1.10
2022-09-13T09:25:05.040Z,0.90
2022-09-13T09:27:32.373Z,0.90
2022-09-13T09:29:59.382Z,0.90
2022-09-13T09:32:44.262Z,1.00
2022-09-13T09:35:28.280Z,0.85
2022-09-13T09:38:27.442Z,0.75
2022-09-13T09:40:54.227Z,0.55
2022-09-13T09:43:33.511Z,0.47
2022-09-13T09:46:03.445Z,0.50
2022-09-13T09:48:42.408Z,0.60
2022-09-13T09:51:11.866Z,0.43
2022-09-13T09:53:45.874Z,1.33
2022-09-13T09:56:23.976Z,0.65
2022-09-13T09:58:53.298Z,0.85
2022-09-13T10:01:34.158Z,0.40
2022-09-13T10:04:12.892Z,0.20
2022-09-13T10:06:42.044Z,0.30
2022-09-13T10:09:14.577Z,0.52
2022-09-13T10:11:54.033Z,0.70
2022-09-13T10:14:46.270Z,0.50
2022-09-13T10:17:29.096Z,0.57
2022-09-13T10:19:59.785Z,0.50
2022-09-13T10:22:28.435Z,0.40
2022-09-13T10:24:56.105Z,0.40
2022-09-13T10:27:43.122Z,0.55
2022-09-13T10:30:47.328Z,0.50
2022-09-13T10:33:37.490Z,0.40
2022-09-13T10:36:41.592Z,0.30
2022-09-13T10:39:18.158Z,0.57
2022-09-13T10:41:52.191Z,0.70
2022-09-13T10:44:47.551Z,0.28
2022-09-13T10:47:24.597Z,0.40
2022-09-13T10:49:54.277Z,0.22
2022-09-13T10:52:35.050Z,0.30
2022-09-13T10:55:19.966Z,0.10
2022-09-13T10:57:53.006Z,1.33
2022-09-13T11:00:24.730Z,1.27
2022-09-13T11:03:32.384Z,0.43
2022-09-13T11:06:24.602Z,0.20
2022-09-13T11:09:17.869Z,0.30
2022-09-13T11:14:58.283Z,0.30
2022-09-13T11:17:50.634Z,0.43
2022-09-13T11:20:45.651Z,0.30
2022-09-13T11:23:35.548Z,0.30
2022-09-13T11:26:30.298Z,0.20
2022-09-13T11:29:30.491Z,0.25
2022-09-13T11:32:27.905Z,0.20
2022-09-13T11:35:50.994Z,0.73
2022-09-13T11:38:49.942Z,0.20
2022-09-13T11:41:45.321Z,0.40
2022-09-13T11:44:49.502Z,0.40
2022-09-13T11:47:43.580Z,0.50
2022-09-13T11:50:44.922Z,0.30
2022-09-13T11:53:31.877Z,0.43
2022-09-13T11:56:06.778Z,0.60
2022-09-13T11:58:43.254Z,0.40
2022-09-13T12:01:14.162Z,0.60
2022-09-13T12:04:11.656Z,0.35
2022-09-13T12:06:43.374Z,0.13
2022-09-13T12:09:18.994Z,0.30
2022-09-13T12:12:07.868Z,0.52
2022-09-13T12:14:54.646Z,0.20
2022-09-13T12:17:32.187Z,0.10
2022-09-13T12:20:02.293Z,0.50
2022-09-13T12:22:34.241Z,0.38
2022-09-13T12:25:11.254Z,0.20
2022-09-13T12:27:59.257Z,0.75
2022-09-13T12:30:37.861Z,0.50
2022-09-13T12:33:06.806Z,0.30
2022-09-13T12:36:17.733Z,0.10
2022-09-13T12:39:35.347Z,0.22
2022-09-13T12:42:49.670Z,0.20
2022-09-13T12:45:24.196Z,0.50
2022-09-13T12:48:47.930Z,0.30
2022-09-13T12:51:23.836Z,0.25
2022-09-13T12:54:17.070Z,0.10
2022-09-13T13:00:13.020Z,0.15
2022-09-13T13:02:54.732Z,0.28
2022-09-13T13:05:31.336Z,0.25
2022-09-13T13:08:03.492Z,0.30
2022-09-13T13:10:36.962Z,0.17
2022-09-13T13:13:36.380Z,0.47
2022-09-13T13:16:34.335Z,0.20
2022-09-13T13:19:04.547Z,0.22
2022-09-13T13:21:39.158Z,0.20
2022-09-13T13:24:28.510Z,0.20
2022-09-13T13:26:58.418Z,0.50
2022-09-13T13:29:30.865Z,0.40
2022-09-13T13:31:57.564Z,0.38
2022-09-13T13:34:24.232Z,0.30
2022-09-13T13:37:32.876Z,0.20
2022-09-13T13:40:22.047Z,0.30
2022-09-13T13:42:49.101Z,0.20
2022-09-13T13:45:25.228Z,0.15
2022-09-13T13:48:55.283Z,0.28
2022-09-13T13:51:26.049Z,0.30
2022-09-13T13:54:05.942Z,0.45
2022-09-13T13:56:47.047Z,0.30
2022-09-13T13:59:25.531Z,0.13
2022-09-13T14:01:59.567Z,0.40
2022-09-13T14:05:13.530Z,0.50
2022-09-13T14:08:10.256Z,0.30
2022-09-13T14:10:58.004Z,0.73
2022-09-13T14:13:42.279Z,0.57
2022-09-13T14:16:22.878Z,0.20
2022-09-13T14:19:19.591Z,0.10
2022-09-13T14:21:46.470Z,0.38
2022-09-13T14:24:23.637Z,0.40
2022-09-13T14:26:59.288Z,0.35
2022-09-13T14:29:26.386Z,0.55
2022-09-13T14:32:01.556Z,0.43
2022-09-13T14:34:32.585Z,0.20
2022-09-13T14:37:02.643Z,0.30
2022-09-13T14:39:30.758Z,0.50
2022-09-13T14:42:16.299Z,0.30
2022-09-13T14:44:47.390Z,0.25
2022-09-13T14:47:27.061Z,0.50
2022-09-13T14:50:16.744Z,0.20
2022-09-13T14:52:52.405Z,0.40
2022-09-13T14:55:26.528Z,0.50
2022-09-13T14:58:04.316Z,0.20
2022-09-13T15:00:46.147Z,0.38
2022-09-13T15:03:16.465Z,0.40
2022-09-13T15:05:53.626Z,0.45
2022-09-13T15:08:35.257Z,0.50
2022-09-13T15:11:05.827Z,0.35
2022-09-13T15:13:34.474Z,0.30
2022-09-13T15:16:01.581Z,0.20
2022-09-13T15:18:36.954Z,0.20
2022-09-13T15:21:06.495Z,0.35
2022-09-13T15:23:37.978Z,0.40
2022-09-13T15:26:10.402Z,0.63
2022-09-13T15:28:49.052Z,0.55
2022-09-13T15:31:24.825Z,0.50
2022-09-13T15:34:20.446Z,2.05
2022-09-13T15:36:49.865Z,0.40
2022-09-13T15:39:21.930Z,0.52
2022-09-13T15:42:01.216Z,0.43
2022-09-13T15:44:32.591Z,0.45
2022-09-13T15:47:09.573Z,0.50
2022-09-13T15:49:40.958Z,0.32
2022-09-13T15:52:08.098Z,0.30
2022-09-13T15:54:41.450Z,1.08
2022-09-13T15:57:18.419Z,0.80
2022-09-13T15:59:45.401Z,0.85
2022-09-13T16:02:33.230Z,0.60
2022-09-13T16:05:00.195Z,0.50
2022-09-13T16:07:27.383Z,0.50
2022-09-13T16:09:54.454Z,0.40
2022-09-13T16:12:24.616Z,0.52
2022-09-13T16:14:51.657Z,0.40
2022-09-13T16:17:27.113Z,0.50
2022-09-13T16:19:54.921Z,0.38
2022-09-13T16:22:22.507Z,0.43
2022-09-13T16:24:50.328Z,0.75
2022-09-13T16:27:19.529Z,0.30
2022-09-13T16:29:47.474Z,0.50
2022-09-13T16:32:14.574Z,0.80
2022-09-13T16:34:41.441Z,0.38
2022-09-13T16:37:08.190Z,0.40
2022-09-13T16:39:34.971Z,0.50
2022-09-13T16:42:01.885Z,0.50
2022-09-13T16:44:28.611Z,0.57
2022-09-13T16:46:55.355Z,0.32
2022-09-13T16:49:22.153Z,0.50
2022-09-13T16:51:49.069Z,0.50
2022-09-13T16:54:15.857Z,0.77
2022-09-13T16:56:42.692Z,0.47
2022-09-13T16:59:09.642Z,0.60
2022-09-13T17:01:37.603Z,0.55
2022-09-13T17:04:04.450Z,0.60
2022-09-13T17:06:31.214Z,0.63
2022-09-13T17:09:01.711Z,0.63
2022-09-13T17:11:31.886Z,0.70
2022-09-13T17:14:01.069Z,1.08
2022-09-13T17:16:38.340Z,0.90
2022-09-13T17:19:09.476Z,0.52
2022-09-13T17:21:36.331Z,0.55
2022-09-13T17:24:03.869Z,0.50
2022-09-13T17:26:30.634Z,0.55
2022-09-13T17:28:57.510Z,0.73
2022-09-13T17:31:24.555Z,0.77
2022-09-13T17:33:53.319Z,0.75
2022-09-13T17:36:20.862Z,0.82
2022-09-13T17:38:48.258Z,0.60
2022-09-13T17:41:19.357Z,1.33
2022-09-13T17:43:47.567Z,0.85
2022-09-13T17:46:22.376Z,0.68
2022-09-13T17:48:52.248Z,1.48
2022-09-13T17:51:25.319Z,0.98
2022-09-13T17:54:07.139Z,0.80
2022-09-13T17:56:38.071Z,0.75
2022-09-13T17:59:10.589Z,1.27
2022-09-13T18:01:40.927Z,0.93
2022-09-13T18:04:08.567Z,0.73
2022-09-13T18:06:37.393Z,0.88
2022-09-13T18:09:05.053Z,0.57
2022-09-13T18:11:31.830Z,0.70
2022-09-13T18:13:58.801Z,0.88
2022-09-13T18:16:29.534Z,0.80
2022-09-13T18:18:57.066Z,0.80
2022-09-13T18:21:26.092Z,0.75
2022-09-13T18:23:58.135Z,0.80
2022-09-13T18:26:27.698Z,0.52
2022-09-13T18:29:04.259Z,0.60
2022-09-13T18:31:33.515Z,0.80
2022-09-13T18:34:04.106Z,0.50
2022-09-13T18:36:33.547Z,0.82
2022-09-13T18:39:03.128Z,0.85
2022-09-13T18:41:40.538Z,0.80
2022-09-13T18:44:09.633Z,0.60
2022-09-13T18:46:37.538Z,0.52
2022-09-13T18:49:05.802Z,0.60
2022-09-13T18:51:39.260Z,0.70
2022-09-13T18:54:08.415Z,1.08
2022-09-13T18:56:35.895Z,0.50
2022-09-13T18:59:06.355Z,0.77
2022-09-13T19:01:37.163Z,0.70
2022-09-13T19:04:12.211Z,0.85
2022-09-13T19:06:42.810Z,1.02
2022-09-13T19:09:10.907Z,0.75
2022-09-13T19:11:48.189Z,0.57
2022-09-13T19:14:27.255Z,0.88
2022-09-13T19:16:57.279Z,0.90
2022-09-13T19:19:24.839Z,0.85
2022-09-13T19:21:51.825Z,0.73
2022-09-13T19:24:20.231Z,0.90
2022-09-13T19:26:52.828Z,0.90
2022-09-13T19:29:23.540Z,0.55
2022-09-13T19:31:52.744Z,0.60
2022-09-13T19:34:22.158Z,0.90
2022-09-13T19:36:52.670Z,0.95
2022-09-13T19:39:19.578Z,0.70
2022-09-13T19:41:46.732Z,1.20
2022-09-13T19:44:15.222Z,0.68
2022-09-13T19:46:43.730Z,0.80
2022-09-13T19:49:17.253Z,0.75
2022-09-13T19:51:51.342Z,0.93
2022-09-13T19:54:19.045Z,0.88
2022-09-13T19:56:46.630Z,0.75
2022-09-13T19:59:16.904Z,0.60
2022-09-13T20:01:45.897Z,0.60
2022-09-13T20:04:18.312Z,0.47
2022-09-13T20:06:48.316Z,0.60
2022-09-13T20:09:17.535Z,0.52
2022-09-13T20:11:45.603Z,0.73
2022-09-13T20:14:15.241Z,0.82
2022-09-13T20:16:43.038Z,1.00
2022-09-13T20:19:39.426Z,0.80
2022-09-13T20:22:05.916Z,1.10
2022-09-13T20:24:32.738Z,0.98
2022-09-13T20:26:59.872Z,0.70
2022-09-13T20:29:26.634Z,1.95
2022-09-13T20:31:55.558Z,0.73
2022-09-13T20:34:22.649Z,0.60
2022-09-13T20:36:49.375Z,0.70
2022-09-13T20:39:16.379Z,0.85
2022-09-13T20:41:44.265Z,0.77
2022-09-13T20:44:12.291Z,1.08
2022-09-13T20:46:40.503Z,0.88
2022-09-13T20:49:10.546Z,0.50
2022-09-13T20:51:37.750Z,1.52
2022-09-13T20:54:05.379Z,0.98
2022-09-13T20:56:34.483Z,1.25
2022-09-13T20:59:01.936Z,1.00
2022-09-13T21:01:31.210Z,1.20
2022-09-13T21:03:59.297Z,0.95
2022-09-13T21:06:29.777Z,1.35
2022-09-13T21:08:59.956Z,0.95
2022-09-13T21:11:33.518Z,1.00
2022-09-13T21:14:08.622Z,0.90
2022-09-13T21:16:39.566Z,1.00
2022-09-13T21:19:08.062Z,0.80
2022-09-13T21:21:40.249Z,0.82
2022-09-13T21:24:10.128Z,0.80
2022-09-13T21:26:42.110Z,0.70
2022-09-13T21:29:11.501Z,0.98
2022-09-13T21:31:39.129Z,1.17
2022-09-13T21:34:18.230Z,0.73
2022-09-13T21:36:46.413Z,0.70
2022-09-13T21:39:14.021Z,1.13
2022-09-13T21:41:41.128Z,1.00
2022-09-13T21:44:08.097Z,0.82
2022-09-13T21:46:37.278Z,0.90
2022-09-13T21:49:10.822Z,0.82
2022-09-13T21:51:48.482Z,0.60
2022-09-13T21:54:18.845Z,1.00
2022-09-13T21:56:54.121Z,0.80
2022-09-13T21:59:23.020Z,1.50
2022-09-13T22:01:52.525Z,0.98
2022-09-13T22:04:23.828Z,0.70
2022-09-13T22:06:53.524Z,0.75
2022-09-13T22:09:27.044Z,1.15
2022-09-13T22:11:55.999Z,0.88
2022-09-13T22:14:22.966Z,0.85
2022-09-13T22:16:53.063Z,0.75
2022-09-13T22:19:26.601Z,1.02
2022-09-13T22:21:56.890Z,0.82
2022-09-13T22:24:26.649Z,1.40
2022-09-13T22:26:56.467Z,1.05
2022-09-13T22:29:23.723Z,1.00
2022-09-13T22:31:52.287Z,1.08
2022-09-13T22:34:22.910Z,0.80
2022-09-13T22:36:50.282Z,1.00
2022-09-13T22:39:17.467Z,1.20
2022-09-13T22:41:44.907Z,1.23
2022-09-13T22:44:12.069Z,1.33
2022-09-13T22:46:42.565Z,1.15
2022-09-13T22:49:17.331Z,0.73
2022-09-13T22:51:45.357Z,0.70
2022-09-13T22:54:13.930Z,1.20
2022-09-13T22:56:41.576Z,0.98
2022-09-13T22:59:20.859Z,0.88
2022-09-13T23:01:48.155Z,0.90
2022-09-13T23:04:15.338Z,1.08
2022-09-13T23:06:44.093Z,1.08
2022-09-13T23:09:13.887Z,0.73
2022-09-13T23:11:41.041Z,1.52
2022-09-13T23:14:13.078Z,0.75
2022-09-13T23:16:44.254Z,0.88
2022-09-13T23:19:13.656Z,1.10
2022-09-13T23:21:41.183Z,0.95
2022-09-13T23:24:16.298Z,0.90
2022-09-13T23:26:44.970Z,0.75
2022-09-13T23:29:18.193Z,0.65
2022-09-13T23:31:47.200Z,1.00
2022-09-13T23:34:14.975Z,0.90
2022-09-13T23:36:44.136Z,0.98
2022-09-13T23:39:16.794Z,1.67
2022-09-13T23:41:46.236Z,0.82
2022-09-13T23:44:13.342Z,1.05
2022-09-13T23:46:40.234Z,0.75
2022-09-13T23:49:06.979Z,0.70
2022-09-13T23:51:33.785Z,0.88
2022-09-13T23:54:01.226Z,0.90
2022-09-13T23:56:30.998Z,0.95
2022-09-13T23:58:59.722Z,1.10
